Terminal Aerodrome Forecast
Issued by NWS Flagstaff, AZ

Home | Current Version | Previous Version | Text Only | Print | Product List | Glossary On
Versions: 1 2 3 4 5 6 7 8 9 10 11 12 13 14 15
585
FTUS45 KFGZ 242008 AAA
TAFFLG
TAF AMD
KFLG 242008Z 2420/2518 23022G33KT P6SM FEW060 SCT080
     FM250200 23011KT P6SM SKC
     FM250400 22007KT P6SM SKC
     FM251700 22014G26KT P6SM SCT080=

USA.gov is the U.S. government's official web portal to all federal, state and local government web resources and services.